Time;durP1;ratioP1;P1;durP2;ratioP2;P2;SDS_P1;SDS_P2;PMS_P1;PMS_P2;Temp;Humidity;BMP_temperature;BMP_pressure;BME280_temperature;BME280_humidity;BME280_pressure;Samples;Min_cycle;Max_cycle;Signal;HPM_P1;HPM_P2
2022/11/03 00:00:55;;;;;;;9.35;3.83;;;11.80;99.90;;;;;;5093450;28;19915;-67
2022/11/03 00:03:21;;;;;;;9.57;3.80;;;11.70;99.90;;;;;;5093163;28;20032;-67
2022/11/03 00:06:05;;;;;;;7.78;3.72;;;11.80;99.90;;;;;;5093244;28;20024;-67
2022/11/03 00:08:35;;;;;;;8.68;3.60;;;11.80;99.90;;;;;;5093701;28;20386;-67
2022/11/03 00:11:20;;;;;;;6.95;3.42;;;11.80;99.90;;;;;;5093436;28;20027;-67
2022/11/03 00:13:45;;;;;;;5.78;2.95;;;11.80;99.90;;;;;;5093303;28;20074;-67
2022/11/03 00:16:11;;;;;;;6.70;2.85;;;11.70;99.90;;;;;;5093352;28;20028;-66
2022/11/03 00:18:38;;;;;;;4.75;2.78;;;11.70;99.90;;;;;;5092727;28;20024;-67
2022/11/03 00:21:12;;;;;;;5.22;2.70;;;11.80;99.90;;;;;;5092786;28;20043;-67
2022/11/03 00:23:39;;;;;;;7.35;2.95;;;11.70;99.90;;;;;;5093163;28;20394;-66
2022/11/03 00:26:15;;;;;;;7.60;2.92;;;11.60;99.90;;;;;;5093395;28;20107;-67
2022/11/03 00:28:43;;;;;;;7.30;2.83;;;11.40;99.90;;;;;;5092951;28;20032;-67
2022/11/03 00:31:11;;;;;;;6.25;2.70;;;11.40;99.90;;;;;;5092787;28;20108;-67
2022/11/03 00:33:38;;;;;;;7.22;2.92;;;11.60;99.90;;;;;;5092897;28;20028;-67
2022/11/03 00:36:05;;;;;;;4.60;2.60;;;11.60;99.90;;;;;;5092643;28;20026;-67
2022/11/03 00:38:31;;;;;;;6.60;2.88;;;11.60;99.90;;;;;;5092852;28;20028;-66
2022/11/03 00:40:59;;;;;;;7.20;2.90;;;11.80;99.90;;;;;;5092460;28;20496;-66
2022/11/03 00:43:26;;;;;;;6.93;2.97;;;11.90;99.90;;;;;;5092916;28;20036;-67
2022/11/03 00:45:53;;;;;;;4.70;2.60;;;11.70;99.90;;;;;;5092561;28;20366;-67
2022/11/03 00:48:28;;;;;;;8.35;3.00;;;11.60;99.90;;;;;;5092340;28;20028;-67
2022/11/03 00:51:00;;;;;;;8.07;3.10;;;11.60;99.90;;;;;;5092595;28;20028;-67
2022/11/03 00:53:25;;;;;;;5.97;2.75;;;11.60;99.90;;;;;;5091696;28;20020;-66
2022/11/03 00:55:51;;;;;;;5.35;2.97;;;11.50;99.90;;;;;;5092430;28;20106;-67
2022/11/03 00:58:17;;;;;;;6.75;2.80;;;11.60;99.90;;;;;;5092392;28;20035;-66
2022/11/03 01:00:42;;;;;;;5.95;2.60;;;11.60;99.90;;;;;;5092142;28;20393;-66
2022/11/03 01:03:08;;;;;;;7.00;3.13;;;11.60;99.90;;;;;;5092415;28;20032;-67
2022/11/03 01:08:18;;;;;;;;;;;11.50;99.90;;;;;;5093054;28;20111;-67
2022/11/03 01:11:42;;;;;;;7.50;2.80;;;11.70;99.90;;;;;;5092497;28;19935;-67
2022/11/03 01:13:29;;;;;;;6.57;2.42;;;11.80;99.90;;;;;;5092062;28;20031;-66
2022/11/03 01:15:58;;;;;;;5.15;2.42;;;11.90;99.90;;;;;;5091484;28;20111;-67
2022/11/03 01:18:24;;;;;;;4.93;2.65;;;11.90;99.90;;;;;;5092567;28;20020;-67
2022/11/03 01:20:56;;;;;;;7.65;2.80;;;12.00;99.90;;;;;;5091700;28;20434;-66
2022/11/03 01:23:23;;;;;;;7.10;2.88;;;12.10;99.90;;;;;;5092110;28;20048;-67
2022/11/03 01:25:49;;;;;;;5.57;2.40;;;12.10;99.90;;;;;;5092181;28;20032;-67
2022/11/03 01:28:15;;;;;;;7.10;3.13;;;12.20;99.90;;;;;;5092052;28;20028;-66
2022/11/03 01:30:40;;;;;;;6.07;2.50;;;12.20;99.90;;;;;;5091388;28;20054;-66
2022/11/03 01:33:06;;;;;;;9.13;2.80;;;12.20;99.90;;;;;;5092044;28;20428;-67
2022/11/03 01:35:32;;;;;;;10.20;2.92;;;12.20;99.90;;;;;;5091761;28;20044;-66
2022/11/03 01:37:57;;;;;;;6.03;2.85;;;12.20;99.90;;;;;;5092312;28;20056;-67
2022/11/03 01:40:23;;;;;;;6.75;2.80;;;12.20;99.90;;;;;;5091499;28;20383;-66
2022/11/03 01:42:49;;;;;;;6.88;2.55;;;12.10;99.90;;;;;;5091916;28;20028;-67
2022/11/03 01:45:15;;;;;;;7.70;2.88;;;12.20;99.90;;;;;;5091628;28;20031;-67
2022/11/03 01:47:42;;;;;;;5.18;2.78;;;12.40;99.90;;;;;;5090452;28;20027;-67
2022/11/03 01:50:13;;;;;;;8.38;3.00;;;12.40;99.90;;;;;;5091857;28;20020;-67
2022/11/03 01:52:55;;;;;;;6.70;2.72;;;12.40;99.90;;;;;;5092073;28;20035;-67
2022/11/03 01:55:27;;;;;;;6.25;2.83;;;12.50;99.90;;;;;;5091600;28;20031;-67
2022/11/03 01:57:59;;;;;;;6.82;2.85;;;12.50;99.90;;;;;;5091709;28;20097;-67
2022/11/03 02:00:25;;;;;;;7.53;2.90;;;12.40;99.90;;;;;;5091612;28;20038;-67
2022/11/03 02:02:51;;;;;;;6.45;3.10;;;12.50;99.90;;;;;;5091502;28;20409;-66
2022/11/03 02:05:18;;;;;;;7.03;2.92;;;12.40;99.90;;;;;;5093493;28;20047;-67
2022/11/03 02:07:49;;;;;;;6.53;2.75;;;12.30;99.90;;;;;;5095635;28;20024;-67
2022/11/03 02:10:16;;;;;;;7.43;2.88;;;12.50;99.90;;;;;;5095649;28;20107;-67
2022/11/03 02:12:43;;;;;;;6.38;2.80;;;12.40;99.90;;;;;;5095486;28;20070;-67
2022/11/03 02:15:12;;;;;;;5.22;2.58;;;12.40;99.90;;;;;;5095631;28;20089;-67
2022/11/03 02:17:40;;;;;;;8.68;2.70;;;12.30;99.90;;;;;;5095435;28;20055;-67
2022/11/03 02:20:09;;;;;;;6.40;2.67;;;12.30;99.90;;;;;;5094984;28;20032;-66
2022/11/03 02:22:46;;;;;;;8.88;2.85;;;12.30;99.90;;;;;;5095379;28;20062;-66
2022/11/03 02:25:36;;;;;;;7.30;2.72;;;12.30;99.90;;;;;;5095308;28;20099;-66
2022/11/03 02:28:03;;;;;;;6.15;2.60;;;12.30;99.90;;;;;;5094858;28;20024;-66
2022/11/03 02:30:37;;;;;;;6.22;2.63;;;12.20;99.90;;;;;;5095310;28;20028;-66
2022/11/03 02:33:10;;;;;;;6.97;3.00;;;12.20;99.90;;;;;;5095582;28;20052;-66
2022/11/03 02:36:06;;;;;;;8.30;2.90;;;12.20;99.90;;;;;;5094598;28;20035;-66
2022/11/03 02:38:37;;;;;;;8.05;2.72;;;12.20;99.90;;;;;;5076061;28;20656;-66
2022/11/03 02:41:07;;;;;;;9.70;2.70;;;12.10;99.90;;;;;;5092282;28;20533;-66
2022/11/03 02:43:33;;;;;;;6.00;2.60;;;12.20;99.90;;;;;;5075138;28;20426;-66
2022/11/03 02:46:00;;;;;;;6.40;2.40;;;12.10;99.90;;;;;;5093055;28;20079;-66
2022/11/03 02:48:26;;;;;;;6.00;2.50;;;11.90;99.90;;;;;;5092822;28;20081;-66
2022/11/03 02:50:53;;;;;;;4.57;2.30;;;12.10;99.90;;;;;;5092542;28;20032;-66
2022/11/03 02:53:19;;;;;;;4.18;2.20;;;12.10;99.90;;;;;;5092675;28;20028;-67
2022/11/03 02:55:50;;;;;;;5.50;2.85;;;12.00;99.90;;;;;;5092599;28;20040;-66
2022/11/03 02:58:38;;;;;;;7.63;2.50;;;11.90;99.90;;;;;;5092156;28;20024;-66
2022/11/03 03:01:35;;;;;;;7.85;2.70;;;12.00;99.90;;;;;;5092319;28;20043;-66
2022/11/03 03:04:08;;;;;;;9.43;3.05;;;12.10;99.90;;;;;;5092375;28;20055;-67
2022/11/03 03:06:46;;;;;;;6.43;2.55;;;12.10;99.90;;;;;;5075338;28;20486;-66
2022/11/03 03:09:22;;;;;;;5.65;2.45;;;12.20;99.90;;;;;;5092140;28;20060;-66
2022/11/03 03:11:52;;;;;;;6.43;3.10;;;12.10;99.90;;;;;;5091765;28;20032;-67
2022/11/03 03:14:40;;;;;;;4.95;2.40;;;12.10;99.90;;;;;;5092233;28;20131;-66
2022/11/03 03:17:13;;;;;;;7.05;2.58;;;12.10;99.90;;;;;;5093944;28;20032;-67
2022/11/03 03:20:07;;;;;;;9.10;3.13;;;12.10;99.90;;;;;;5093893;28;20491;-67
2022/11/03 03:22:59;;;;;;;6.13;2.53;;;12.00;99.90;;;;;;5094293;28;20028;-66
2022/11/03 03:25:37;;;;;;;7.47;2.50;;;12.00;99.90;;;;;;5094020;28;20028;-67
2022/11/03 03:28:28;;;;;;;6.25;2.70;;;12.00;99.90;;;;;;5093824;28;20024;-66
2022/11/03 03:30:56;;;;;;;5.43;2.70;;;12.00;99.90;;;;;;5093812;28;20032;-66
2022/11/03 03:33:24;;;;;;;6.88;2.53;;;12.00;99.90;;;;;;5094067;28;20058;-66
2022/11/03 03:35:51;;;;;;;6.20;2.63;;;12.10;99.90;;;;;;5094028;28;20016;-66
2022/11/03 03:38:29;;;;;;;7.00;2.72;;;12.10;99.90;;;;;;5094143;28;20078;-65
2022/11/03 03:40:58;;;;;;;6.50;2.75;;;12.00;99.90;;;;;;5092656;28;20416;-67
2022/11/03 03:43:27;;;;;;;7.80;2.78;;;12.10;99.90;;;;;;5093465;28;20032;-66
2022/11/03 03:45:59;;;;;;;5.82;2.78;;;12.00;99.90;;;;;;5092963;28;20024;-67
2022/11/03 03:48:25;;;;;;;6.43;2.95;;;12.00;99.90;;;;;;5093745;28;20505;-67
2022/11/03 03:50:52;;;;;;;8.43;2.80;;;12.00;99.90;;;;;;5094031;28;20028;-66
2022/11/03 03:53:18;;;;;;;7.68;3.00;;;12.10;99.90;;;;;;5093583;28;20052;-67
2022/11/03 03:55:48;;;;;;;5.53;2.80;;;12.10;99.90;;;;;;5093221;28;20067;-67
2022/11/03 03:58:15;;;;;;;5.18;2.90;;;12.10;99.90;;;;;;5093236;28;20020;-66
2022/11/03 04:00:41;;;;;;;6.43;3.00;;;12.20;99.90;;;;;;5093405;28;20050;-67
2022/11/03 04:03:22;;;;;;;4.85;2.38;;;12.10;99.90;;;;;;5093618;28;20028;-66
2022/11/03 04:05:49;;;;;;;8.57;2.85;;;12.20;99.90;;;;;;5093535;28;20027;-67
2022/11/03 04:08:16;;;;;;;5.95;2.80;;;12.20;99.90;;;;;;5093362;28;20492;-67
2022/11/03 04:22:15;;;;;;;5.85;2.83;;;12.20;99.90;;;;;;5092747;28;20023;-66
2022/11/03 04:24:28;;;;;;;6.63;2.60;;;12.20;99.90;;;;;;5093422;28;20001;-67
2022/11/03 04:27:00;;;;;;;4.20;2.08;;;12.20;99.90;;;;;;5092935;28;20478;-66
2022/11/03 04:29:27;;;;;;;7.00;2.40;;;12.20;99.90;;;;;;5092911;28;20055;-66
2022/11/03 04:31:52;;;;;;;5.68;2.67;;;12.20;99.90;;;;;;5092912;28;20478;-66
2022/11/03 04:34:18;;;;;;;6.05;2.78;;;12.30;99.90;;;;;;5093159;28;20024;-66
2022/11/03 04:36:44;;;;;;;7.30;2.67;;;12.30;99.90;;;;;;5092853;28;20389;-66
2022/11/03 04:39:17;;;;;;;5.72;2.50;;;12.30;99.90;;;;;;5092373;28;20028;-66
2022/11/03 04:41:43;;;;;;;6.47;2.42;;;12.30;99.90;;;;;;5092899;28;20438;-67
2022/11/03 04:44:15;;;;;;;8.27;2.65;;;12.30;99.90;;;;;;5092613;28;20099;-66
2022/11/03 04:46:42;;;;;;;7.90;2.65;;;12.30;99.90;;;;;;5092546;28;20036;-66
2022/11/03 04:49:15;;;;;;;6.95;2.58;;;12.30;99.90;;;;;;5092592;28;20052;-66
2022/11/03 04:51:41;;;;;;;3.53;2.22;;;12.40;99.90;;;;;;5092500;28;20399;-66
2022/11/03 04:54:17;;;;;;;5.80;2.63;;;12.40;99.90;;;;;;5090702;28;20028;-66
2022/11/03 04:56:43;;;;;;;6.60;2.80;;;12.40;99.90;;;;;;5092758;28;20028;-66
2022/11/03 04:59:13;;;;;;;7.63;2.80;;;12.40;99.90;;;;;;5092441;28;20028;-66
2022/11/03 05:01:39;;;;;;;7.07;2.30;;;12.40;99.90;;;;;;5092272;28;20046;-66
2022/11/03 05:04:15;;;;;;;8.77;2.78;;;12.40;99.90;;;;;;5092310;28;20020;-66
2022/11/03 05:06:46;;;;;;;6.40;2.40;;;12.40;99.90;;;;;;5092193;28;20028;-67
2022/11/03 05:09:16;;;;;;;4.97;2.25;;;12.40;99.90;;;;;;5092202;28;20050;-66
2022/11/03 05:11:44;;;;;;;3.90;2.20;;;12.40;99.90;;;;;;5092222;28;20074;-67
2022/11/03 05:14:23;;;;;;;4.65;2.40;;;12.40;99.90;;;;;;5092654;28;20040;-66
2022/11/03 05:16:52;;;;;;;4.95;2.33;;;12.40;99.90;;;;;;5091790;28;20116;-67
2022/11/03 05:19:32;;;;;;;5.35;2.63;;;12.40;99.90;;;;;;5092397;28;20008;-66
2022/11/03 05:21:59;;;;;;;5.97;2.63;;;12.40;99.90;;;;;;5091518;28;20043;-66
2022/11/03 05:24:26;;;;;;;4.90;2.30;;;12.40;99.90;;;;;;5092134;28;20078;-66
2022/11/03 05:26:54;;;;;;;5.68;2.58;;;12.40;99.90;;;;;;5092285;28;20107;-67
2022/11/03 05:29:38;;;;;;;8.52;2.40;;;12.40;99.90;;;;;;5092060;28;20099;-66
2022/11/03 05:32:11;;;;;;;6.78;2.60;;;12.40;99.90;;;;;;5091878;28;20063;-66
2022/11/03 05:34:42;;;;;;;6.35;2.53;;;12.40;99.90;;;;;;5091693;28;20039;-66
2022/11/03 05:37:18;;;;;;;7.13;2.65;;;12.40;99.90;;;;;;5091465;28;20020;-66
2022/11/03 05:39:46;;;;;;;6.60;2.70;;;12.40;99.90;;;;;;5091204;28;20038;-67
2022/11/03 05:42:21;;;;;;;7.13;2.90;;;12.40;99.90;;;;;;5091908;28;20047;-66
2022/11/03 05:44:48;;;;;;;6.72;3.10;;;12.40;99.90;;;;;;5091735;28;20024;-66
2022/11/03 05:47:24;;;;;;;5.30;2.45;;;12.40;99.90;;;;;;5091767;28;20140;-66
2022/11/03 05:49:59;;;;;;;6.10;2.58;;;12.40;99.90;;;;;;5091512;28;20073;-66
2022/11/03 05:52:26;;;;;;;5.18;2.47;;;12.40;99.90;;;;;;5091651;28;20470;-67
2022/11/03 05:54:57;;;;;;;6.55;2.40;;;12.50;99.90;;;;;;5091714;28;20021;-67
2022/11/03 05:57:27;;;;;;;4.68;2.50;;;12.40;99.90;;;;;;5091808;28;20039;-66
2022/11/03 05:59:53;;;;;;;9.35;2.85;;;12.40;99.90;;;;;;5091411;28;20036;-66
2022/11/03 06:02:38;;;;;;;4.18;2.50;;;12.40;99.90;;;;;;5092038;28;20505;-67
2022/11/03 06:05:20;;;;;;;5.55;2.60;;;12.50;99.90;;;;;;5091952;28;20028;-66
2022/11/03 06:07:47;;;;;;;8.65;2.35;;;12.50;99.90;;;;;;5091931;28;20031;-66
2022/11/03 06:10:30;;;;;;;6.53;2.22;;;12.50;99.90;;;;;;5091409;28;20028;-66
2022/11/03 06:13:12;;;;;;;5.85;2.40;;;12.50;99.90;;;;;;5091519;28;20540;-67
2022/11/03 06:15:42;;;;;;;6.47;2.50;;;12.50;99.90;;;;;;5091526;28;20509;-66
2022/11/03 06:18:18;;;;;;;6.35;2.80;;;12.50;99.90;;;;;;5091485;28;20066;-66
2022/11/03 06:20:55;;;;;;;6.72;2.60;;;12.60;99.90;;;;;;5090701;28;20121;-66
2022/11/03 06:23:21;;;;;;;8.43;2.78;;;12.70;99.90;;;;;;5091470;28;20012;-67
2022/11/03 06:25:49;;;;;;;6.07;2.90;;;12.70;99.90;;;;;;5091439;28;20028;-66
2022/11/03 06:28:31;;;;;;;5.93;2.80;;;12.70;99.90;;;;;;5091611;28;20065;-66
2022/11/03 06:30:56;;;;;;;5.22;2.80;;;12.70;99.90;;;;;;5091301;28;20035;-67
2022/11/03 06:33:27;;;;;;;6.72;2.90;;;12.60;99.90;;;;;;5091538;28;20016;-66
2022/11/03 06:35:59;;;;;;;5.97;2.78;;;12.60;99.90;;;;;;5090777;28;20391;-66
2022/11/03 06:38:28;;;;;;;5.72;2.72;;;12.70;99.90;;;;;;5091386;28;20020;-66
2022/11/03 06:40:55;;;;;;;5.78;2.70;;;12.70;99.90;;;;;;5090877;28;20059;-66
2022/11/03 06:43:50;;;;;;;6.93;3.20;;;12.70;99.90;;;;;;5091298;28;20510;-66
2022/11/03 06:46:23;;;;;;;6.13;3.00;;;12.70;99.90;;;;;;5090671;28;20028;-66
2022/11/03 06:48:51;;;;;;;7.53;2.83;;;12.70;99.90;;;;;;5091295;28;20044;-66
2022/11/03 06:51:21;;;;;;;5.00;2.65;;;12.80;99.90;;;;;;5091363;28;20429;-66
2022/11/03 06:53:48;;;;;;;5.25;2.83;;;12.80;99.90;;;;;;5095162;28;20047;-66
2022/11/03 06:56:19;;;;;;;5.07;2.83;;;12.90;99.90;;;;;;5094743;28;20056;-66
2022/11/03 06:58:47;;;;;;;4.72;2.60;;;12.80;99.90;;;;;;5094672;28;20095;-67
2022/11/03 07:01:31;;;;;;;5.03;2.78;;;12.90;99.90;;;;;;5094567;28;20399;-66
2022/11/03 07:04:19;;;;;;;5.57;2.75;;;12.90;99.90;;;;;;5094163;28;20020;-66
2022/11/03 07:06:46;;;;;;;6.93;2.70;;;12.90;99.90;;;;;;5094929;28;20036;-66
2022/11/03 07:09:18;;;;;;;4.63;2.80;;;13.00;99.90;;;;;;5094447;28;20095;-67
2022/11/03 07:11:45;;;;;;;5.20;3.00;;;13.00;99.90;;;;;;5094602;28;20020;-66
2022/11/03 07:14:18;;;;;;;8.57;3.65;;;13.00;99.90;;;;;;5094473;28;20036;-66
2022/11/03 07:16:56;;;;;;;6.60;3.20;;;13.00;99.90;;;;;;5094362;28;20024;-66
2022/11/03 07:19:23;;;;;;;4.13;3.10;;;13.10;99.90;;;;;;5093666;28;20432;-67
2022/11/03 07:21:53;;;;;;;6.43;3.40;;;13.10;99.90;;;;;;5094311;28;20517;-66
2022/11/03 07:24:54;;;;;;;5.43;3.10;;;13.10;99.90;;;;;;5094417;28;20025;-67
2022/11/03 07:27:24;;;;;;;5.43;3.15;;;13.20;99.90;;;;;;5092154;28;20462;-67
2022/11/03 07:29:56;;;;;;;5.50;3.20;;;13.30;99.90;;;;;;5092489;28;20032;-67
2022/11/03 07:32:27;;;;;;;6.53;3.53;;;13.30;99.90;;;;;;5091854;28;20032;-67
2022/11/03 07:35:21;;;;;;;10.73;3.60;;;13.30;99.90;;;;;;5091688;28;20028;-67
2022/11/03 07:37:49;;;;;;;6.65;3.35;;;13.40;99.90;;;;;;5091901;28;20475;-66
2022/11/03 07:40:23;;;;;;;7.03;3.70;;;13.50;99.90;;;;;;5092056;28;20472;-66
2022/11/03 07:42:49;;;;;;;8.90;4.10;;;13.50;99.90;;;;;;5091694;28;20047;-66
2022/11/03 07:45:36;;;;;;;8.32;4.57;;;13.50;99.90;;;;;;5091777;28;20082;-67
2022/11/03 07:48:17;;;;;;;9.73;4.20;;;13.60;99.90;;;;;;5090979;28;20036;-66
2022/11/03 07:50:43;;;;;;;9.77;4.03;;;13.70;99.90;;;;;;5091465;28;20066;-66
2022/11/03 07:53:14;;;;;;;7.85;3.45;;;13.80;99.90;;;;;;5091432;28;20028;-66
2022/11/03 07:55:39;;;;;;;6.22;3.78;;;13.90;99.90;;;;;;5091846;28;20468;-66
2022/11/03 07:58:19;;;;;;;7.35;3.88;;;13.90;99.90;;;;;;5091279;28;20066;-66
2022/11/03 08:00:45;;;;;;;7.03;3.78;;;14.00;99.90;;;;;;5086136;28;20040;-66
2022/11/03 08:03:35;;;;;;;6.30;3.25;;;14.10;99.90;;;;;;5072509;28;20035;-66
2022/11/03 08:06:00;;;;;;;3.08;2.75;;;14.20;99.90;;;;;;5073173;28;20025;-66
2022/11/03 08:08:26;;;;;;;5.68;3.00;;;14.30;99.90;;;;;;5073232;28;20039;-66
2022/11/03 08:10:52;;;;;;;3.60;2.80;;;14.50;99.90;;;;;;5073377;28;20032;-66
2022/11/03 08:13:17;;;;;;;5.95;3.00;;;14.60;99.90;;;;;;5072998;28;20025;-66
2022/11/03 08:15:43;;;;;;;5.65;2.97;;;14.70;99.90;;;;;;5072495;28;20390;-66
2022/11/03 08:18:09;;;;;;;5.05;3.10;;;14.80;99.90;;;;;;5071640;28;20074;-66
2022/11/03 08:20:35;;;;;;;5.55;3.42;;;14.90;99.90;;;;;;5083942;28;20032;-66
2022/11/03 08:23:00;;;;;;;5.68;3.15;;;15.00;99.90;;;;;;5092143;28;20024;-66
2022/11/03 08:25:26;;;;;;;3.92;3.10;;;15.00;99.90;;;;;;5093045;28;20034;-66
2022/11/03 08:27:52;;;;;;;5.20;3.35;;;15.00;99.90;;;;;;5092976;28;20025;-66
2022/11/03 08:30:17;;;;;;;7.38;3.30;;;15.10;99.90;;;;;;5092438;28;20016;-67
2022/11/03 08:32:43;;;;;;;5.30;3.03;;;15.10;99.90;;;;;;5092775;28;20348;-66
2022/11/03 08:35:09;;;;;;;4.20;2.67;;;15.20;99.90;;;;;;5092625;28;20278;-66
2022/11/03 08:37:34;;;;;;;10.82;8.75;;;15.20;99.90;;;;;;5093059;28;20032;-66
2022/11/03 08:40:00;;;;;;;8.55;5.68;;;15.20;99.90;;;;;;5092095;28;20032;-65
2022/11/03 08:42:26;;;;;;;3.90;2.88;;;15.30;99.90;;;;;;5092624;28;20502;-65
2022/11/03 08:44:51;;;;;;;5.97;3.10;;;15.30;99.90;;;;;;5090138;28;20081;-65
2022/11/03 08:47:17;;;;;;;6.38;3.30;;;15.40;99.90;;;;;;5081813;28;20034;-66
2022/11/03 08:49:43;;;;;;;4.22;3.17;;;15.50;99.90;;;;;;5082046;28;20028;-65
2022/11/03 08:52:08;;;;;;;8.57;6.03;;;15.50;99.90;;;;;;5091904;28;20035;-66
2022/11/03 08:54:34;;;;;;;6.45;3.50;;;15.60;99.90;;;;;;5091495;28;20095;-67
2022/11/03 08:57:00;;;;;;;4.57;3.45;;;15.70;99.90;;;;;;5092112;28;20031;-66
2022/11/03 08:59:25;;;;;;;4.55;2.85;;;15.80;99.90;;;;;;5091408;28;20030;-65
2022/11/03 09:01:51;;;;;;;5.10;3.22;;;15.80;99.90;;;;;;5091579;28;20044;-66
2022/11/03 09:04:17;;;;;;;5.70;3.00;;;15.90;99.90;;;;;;5091974;28;20024;-65
2022/11/03 09:06:42;;;;;;;4.18;3.10;;;15.90;99.90;;;;;;5092210;28;20043;-72
2022/11/03 09:09:08;;;;;;;4.57;3.00;;;16.00;99.90;;;;;;5092375;28;20429;-69
2022/11/03 09:11:34;;;;;;;5.88;3.10;;;16.00;99.90;;;;;;5091437;28;20047;-67
2022/11/03 09:14:00;;;;;;;8.23;4.35;;;16.10;99.90;;;;;;5091187;28;20024;-66
2022/11/03 09:16:26;;;;;;;5.68;2.95;;;16.10;99.90;;;;;;5091562;28;20564;-66
2022/11/03 09:18:52;;;;;;;4.90;3.15;;;16.10;99.90;;;;;;5091617;28;20099;-66
2022/11/03 09:21:17;;;;;;;12.95;10.27;;;16.10;99.90;;;;;;5091862;28;20081;-65
2022/11/03 09:23:43;;;;;;;7.47;5.43;;;16.10;99.90;;;;;;5091558;28;20042;-65
2022/11/03 09:26:09;;;;;;;4.82;3.90;;;16.20;99.90;;;;;;5091671;28;20043;-66
2022/11/03 09:28:35;;;;;;;10.15;9.13;;;16.30;99.90;;;;;;5091644;28;20415;-66
2022/11/03 09:31:01;;;;;;;8.07;5.07;;;16.40;99.90;;;;;;5091926;28;20655;-67
2022/11/03 09:33:27;;;;;;;7.25;3.60;;;16.50;99.90;;;;;;5091428;28;20042;-66
2022/11/03 09:35:52;;;;;;;6.25;3.20;;;16.50;99.90;;;;;;5090125;28;20375;-66
2022/11/03 09:38:18;;;;;;;6.22;3.20;;;16.50;99.90;;;;;;5091606;28;20024;-66
2022/11/03 09:40:44;;;;;;;5.97;3.47;;;16.60;99.90;;;;;;5091450;28;20043;-66
2022/11/03 09:43:10;;;;;;;7.65;3.60;;;16.70;99.90;;;;;;5091596;28;20054;-66
2022/11/03 09:45:37;;;;;;;4.22;3.50;;;16.80;99.90;;;;;;5091758;28;20129;-71
2022/11/03 09:48:03;;;;;;;5.65;4.60;;;16.90;99.90;;;;;;5090964;28;20032;-66
2022/11/03 09:50:31;;;;;;;4.70;3.70;;;16.90;99.90;;;;;;5091052;28;20024;-66
2022/11/03 09:52:58;;;;;;;6.65;4.38;;;16.90;99.90;;;;;;5090833;28;20024;-64
2022/11/03 09:55:25;;;;;;;5.25;3.20;;;17.10;99.90;;;;;;5089643;28;20027;-66
2022/11/03 09:58:08;;;;;;;6.25;3.30;;;17.30;99.90;;;;;;5090431;28;20490;-65
2022/11/03 10:00:33;;;;;;;4.88;2.97;;;17.50;99.90;;;;;;5091025;28;20067;-66
2022/11/03 10:03:03;;;;;;;5.20;3.40;;;17.80;99.90;;;;;;5090824;28;20055;-66
2022/11/03 10:05:29;;;;;;;5.15;3.75;;;18.10;99.90;;;;;;5091781;28;20051;-66
2022/11/03 10:08:05;;;;;;;6.82;4.57;;;17.90;99.90;;;;;;5091720;28;20035;-66
2022/11/03 10:10:32;;;;;;;7.72;5.97;;;18.00;99.90;;;;;;5091916;28;20436;-66
2022/11/03 10:12:59;;;;;;;8.00;4.53;;;18.20;99.90;;;;;;5092408;28;20027;-66
2022/11/03 10:15:26;;;;;;;7.05;3.80;;;18.40;99.90;;;;;;5092205;28;20035;-66
2022/11/03 10:17:53;;;;;;;5.03;4.13;;;18.40;99.90;;;;;;5091471;28;20029;-66
2022/11/03 10:20:21;;;;;;;4.53;3.30;;;18.30;99.90;;;;;;5092374;28;20117;-66
2022/11/03 10:22:51;;;;;;;6.28;3.45;;;18.40;99.90;;;;;;5092322;28;20024;-66
2022/11/03 10:25:40;;;;;;;7.45;3.30;;;18.60;99.90;;;;;;5091815;28;20055;-66
2022/11/03 10:28:27;;;;;;;4.78;3.47;;;18.80;99.90;;;;;;5095416;28;20028;-66
2022/11/03 10:30:54;;;;;;;5.28;2.90;;;19.20;99.90;;;;;;5094963;28;20145;-66
2022/11/03 10:33:50;;;;;;;4.03;2.45;;;19.00;99.90;;;;;;5095708;28;20436;-66
2022/11/03 10:36:16;;;;;;;4.57;2.38;;;18.80;99.90;;;;;;5095977;28;20020;-66
2022/11/03 10:38:43;;;;;;;6.55;3.58;;;18.80;99.90;;;;;;5095489;28;20035;-66
2022/11/03 10:41:12;;;;;;;5.65;3.00;;;18.80;99.90;;;;;;5094703;28;20043;-66
2022/11/03 10:43:40;;;;;;;22.40;20.55;;;18.80;99.90;;;;;;5095639;28;20100;-66
2022/11/03 10:46:18;;;;;;;7.70;6.93;;;18.80;99.90;;;;;;5095329;28;20483;-66
2022/11/03 10:48:59;;;;;;;6.00;3.30;;;18.80;99.90;;;;;;5095797;28;20062;-66
2022/11/03 10:51:25;;;;;;;8.65;3.88;;;18.90;99.90;;;;;;5096313;28;20498;-66
2022/11/03 10:53:51;;;;;;;8.75;4.50;;;18.90;99.90;;;;;;5095820;28;20028;-66
2022/11/03 10:56:16;;;;;;;6.72;2.40;;;19.00;99.90;;;;;;5094605;28;20036;-66
2022/11/03 10:58:42;;;;;;;9.25;2.63;;;19.00;99.90;;;;;;5093727;28;20031;-66
2022/11/03 11:01:10;;;;;;;7.72;4.97;;;19.40;99.90;;;;;;5095852;28;20429;-66
2022/11/03 11:03:41;;;;;;;9.57;4.72;;;19.70;99.90;;;;;;5095085;28;20020;-66
2022/11/03 11:06:23;;;;;;;8.25;4.57;;;19.90;99.90;;;;;;5095183;28;20073;-66
2022/11/03 11:08:50;;;;;;;9.88;5.10;;;20.20;99.90;;;;;;5095516;28;20064;-66
2022/11/03 11:11:17;;;;;;;11.07;6.97;;;20.10;99.90;;;;;;5093884;28;20028;-67
2022/11/03 11:13:43;;;;;;;11.40;2.55;;;19.90;99.90;;;;;;5094912;28;20103;-66
2022/11/03 11:16:46;;;;;;;9.07;5.70;;;19.60;99.90;;;;;;5094475;28;20028;-66
2022/11/03 11:19:12;;;;;;;15.60;9.18;;;19.60;99.90;;;;;;5095196;28;20416;-66
2022/11/03 11:21:38;;;;;;;14.75;12.82;;;19.60;99.90;;;;;;5093945;28;20032;-67
2022/11/03 11:24:08;;;;;;;13.57;8.57;;;19.50;99.90;;;;;;5093519;28;20024;-66
2022/11/03 11:26:34;;;;;;;10.50;7.47;;;19.50;99.90;;;;;;5093137;28;20107;-66
2022/11/03 11:29:09;;;;;;;14.10;11.85;;;19.50;99.90;;;;;;5093663;28;20032;-66
2022/11/03 11:31:36;;;;;;;7.90;3.08;;;19.50;99.90;;;;;;5093783;28;20036;-66
2022/11/03 11:34:08;;;;;;;7.28;3.00;;;19.40;99.90;;;;;;5095063;28;20016;-66
2022/11/03 11:36:41;;;;;;;6.72;1.90;;;19.40;99.90;;;;;;5094020;28;20036;-66
2022/11/03 11:39:11;;;;;;;6.70;2.00;;;19.30;99.90;;;;;;5092734;28;20040;-66
2022/11/03 11:42:14;;;;;;;4.13;2.60;;;19.30;99.90;;;;;;5094008;28;20087;-66
2022/11/03 11:44:42;;;;;;;8.07;3.70;;;19.20;99.90;;;;;;5093980;28;20020;-66
2022/11/03 11:47:34;;;;;;;9.23;6.80;;;19.20;99.90;;;;;;5094159;28;20032;-66
2022/11/03 11:50:15;;;;;;;12.95;10.80;;;19.10;99.90;;;;;;5091471;28;20048;-66
2022/11/03 11:52:43;;;;;;;8.40;4.75;;;19.20;99.90;;;;;;5091513;28;20020;-66
2022/11/03 11:55:20;;;;;;;11.10;7.75;;;19.10;99.90;;;;;;5090814;28;20453;-65
2022/11/03 11:57:46;;;;;;;14.40;9.45;;;19.20;99.90;;;;;;5090581;28;20035;-66
2022/11/03 12:00:21;;;;;;;11.13;6.53;;;19.30;99.90;;;;;;5091547;28;20125;-66
2022/11/03 12:02:47;;;;;;;12.57;7.55;;;19.40;99.90;;;;;;5091131;28;20520;-66
2022/11/03 12:05:32;;;;;;;9.60;4.70;;;19.50;99.90;;;;;;5091154;28;20070;-66
2022/11/03 12:07:58;;;;;;;11.43;6.47;;;19.50;99.90;;;;;;5091092;28;20383;-67
2022/11/03 12:10:27;;;;;;;13.05;6.60;;;19.60;99.90;;;;;;5091714;28;20036;-67
2022/11/03 12:12:58;;;;;;;10.85;3.90;;;19.70;99.90;;;;;;5090964;28;20028;-67
2022/11/03 12:15:51;;;;;;;16.77;8.90;;;19.70;99.90;;;;;;5090591;28;20140;-64
2022/11/03 12:18:36;;;;;;;18.77;8.85;;;19.60;99.90;;;;;;5091080;28;20107;-66
2022/11/03 12:21:07;;;;;;;11.50;4.72;;;19.40;99.90;;;;;;5089866;28;20455;-67
2022/11/03 12:23:41;;;;;;;8.80;4.30;;;19.50;99.90;;;;;;5090480;28;20057;-66
2022/11/03 12:26:33;;;;;;;10.32;5.90;;;19.70;99.90;;;;;;5091392;28;20036;-66
2022/11/03 12:28:58;;;;;;;18.17;9.88;;;19.70;99.90;;;;;;5092511;28;20043;-66
2022/11/03 12:31:24;;;;;;;15.10;8.55;;;19.70;99.90;;;;;;5092914;28;20084;-66
2022/11/03 12:33:50;;;;;;;11.82;3.88;;;20.00;99.90;;;;;;5093380;28;20031;-66
2022/11/03 12:36:16;;;;;;;11.52;5.75;;;19.90;99.90;;;;;;5092939;28;20028;-66
2022/11/03 12:38:42;;;;;;;11.65;5.32;;;20.10;99.90;;;;;;5093140;28;20117;-66
2022/11/03 12:41:24;;;;;;;8.75;3.72;;;20.10;99.90;;;;;;5092894;28;20075;-66
2022/11/03 12:43:51;;;;;;;8.35;4.65;;;20.10;99.90;;;;;;5092933;28;20379;-66
2022/11/03 12:46:18;;;;;;;13.63;7.00;;;20.20;99.90;;;;;;5093364;28;20028;-66
2022/11/03 12:48:46;;;;;;;9.52;4.82;;;20.30;99.90;;;;;;5092520;28;20099;-66
2022/11/03 12:51:17;;;;;;;9.40;5.68;;;19.80;99.90;;;;;;5092004;28;20047;-66
2022/11/03 12:53:43;;;;;;;11.65;5.10;;;19.60;99.90;;;;;;5092789;28;20490;-66
2022/11/03 12:56:10;;;;;;;11.00;6.00;;;19.40;99.90;;;;;;5093035;28;20035;-67
2022/11/03 12:58:36;;;;;;;8.23;3.17;;;19.50;99.90;;;;;;5092236;28;20027;-66
2022/11/03 13:01:02;;;;;;;15.32;3.10;;;20.00;99.90;;;;;;5092978;28;20401;-66
2022/11/03 13:03:28;;;;;;;14.75;8.68;;;20.20;99.90;;;;;;5092722;28;20074;-66
2022/11/03 13:05:54;;;;;;;14.68;5.50;;;20.10;99.90;;;;;;5091911;28;20020;-66
2022/11/03 13:08:20;;;;;;;20.52;11.68;;;19.90;99.90;;;;;;5092448;28;20374;-66
2022/11/03 13:10:46;;;;;;;11.85;3.60;;;19.60;99.90;;;;;;5092994;28;20028;-66
2022/11/03 13:13:11;;;;;;;14.70;5.63;;;19.50;99.90;;;;;;5092482;28;20038;-66
2022/11/03 13:15:37;;;;;;;24.90;15.40;;;19.50;99.90;;;;;;5092643;28;20034;-66
2022/11/03 13:18:06;;;;;;;18.10;8.35;;;19.60;99.90;;;;;;5092933;28;20035;-67